Share

Ely, MN

Eveleth-Virginia Municipal (KEVM) Elev 1378 ft | 47.43 °N, 92.50 °W | Change Station

Current weather conditions updated 16 minutes ago

Mostly Cloudy
Mostly Cloudy
54 °F
Feels Like 54 °F
N
16
Wind Variable Wind from WNW
Gusts 28 mph
Sunrise 6:07 AM
Sunset 8:06 PM
Moon Waning Gibbous

Today is forecast to be Cooler than yesterday.

Pressure 29.90 in
Visibility 10.0 miles
Clouds Mostly Cloudy 3900 ft
Dew Point 36 °F
Humidity 51%
Rainfall 0.00 in
Snow Depth Not available.
UV 4 out of 16
Pollen 10.40 out of 12
Air Quality Not available.
Flu Activity Sporadic
METAR KEVM 211634Z AUTO 29014G24KT 10SM BKN039 12/02 A2990 RMK AO2

More Conditions Fewer Conditions

Pressure 29.90 in
Visibility 10.0 miles
Clouds Mostly Cloudy 3900 ft
Dew Point 36 °F
Humidity 51%
Rainfall 0.00 in
Snow Depth Not available.
UV 4 out of 16
Pollen 10.40 out of 12
Air Quality Not available.
Flu Activity Sporadic
METAR KEVM 211634Z AUTO 29014G24KT 10SM BKN039 12/02 A2990 RMK AO2

More Conditions Fewer Conditions

10-Day Weather Forecast

Almanac

Astronomy

Apr. 21, 2014 Rise Set
Actual Time 6:07 AM CDT 8:06 PM CDT
Civil Twilight 5:33 AM CDT 8:39 PM CDT
Nautical Twilight 4:52 AM CDT 9:20 PM CDT
Astronomical Twilight 4:07 AM CDT 10:06 PM CDT
Moon 1:43 AM CDT 11:28 AM CDT
Length of Visible Light 15h 05m
Length of Day
13h 59m
Tomorrow will be 3m 15s longer.
Waning Gibbous, 57% of the Moon is Illuminated
Today
Waning Gibbous
Apr 22
Last Quarter
Apr 29
New
May 6
First Quarter
May 14
Full

Today's Extremes

State Highs State Lows

Community

  • Glass on White Lake
    Glass on White Lake
  • Bright Eyes
    Bright Eyes
  • Snowy Robin
    Snowy Robin
  • Spring Crocus
    Spring Crocus
  • Sun Pillar and Geese
    Sun Pillar and Geese

WunderPhotos

Upload Photos

1,703,682 photos uploaded!

WunderBlogs® & News

Nearby

Snow Depth

Station Depth Elevation
No new snow has been reported.

Coastal Water Temperatures

Place Temperature
No Stations Reporting

Earthquake Activity

City Distance Mag. Time & Date
No recent earthquake activity has been reported nearby.
Minimum magnitude displayed is 2.5.

Nearby Weather Stations

Station Location Temp. Dew Point Humidity Wind Precip. Elev Updated Type
RAWS ELY MN, Ely, MN 56 °F 34 °F 43% West  at  13 mph 0.00 in / hr 1455 ft 10:04 AM CDT MADIS

Show More Stations Show Fewer Stations

What do you think?

We're not finished. Please let us know what you like, what you don't like, and what you are still missing.